Time;durP1;ratioP1;P1;durP2;ratioP2;P2;SDS_P1;SDS_P2;PMS_P1;PMS_P2;Temp;Humidity;BMP_temperature;BMP_pressure;BME280_temperature;BME280_humidity;BME280_pressure;Samples;Min_cycle;Max_cycle;Signal;HPM_P1;HPM_P2
2022/08/24 00:00:33;;;;;;;;;;;;;;;;;;12599715;28;20052;-74
2022/08/24 00:06:35;;;;;;;0.80;0.80;;;;;;;;;;12598984;28;20370;-74
2022/08/24 00:12:37;;;;;;;0.82;0.82;;;;;;;;;;12581021;28;20040;-74
2022/08/24 00:18:38;;;;;;;1.35;1.02;;;;;;;;;;12598433;28;20049;-75
2022/08/24 00:24:40;;;;;;;0.80;0.80;;;;;;;;;;12597996;28;20489;-74
2022/08/24 00:30:42;;;;;;;1.20;0.80;;;;;;;;;;12598043;28;20057;-74
2022/08/24 00:36:44;;;;;;;1.65;1.17;;;;;;;;;;12596809;28;20037;-74
2022/08/24 00:42:46;;;;;;;0.98;0.98;;;;;;;;;;12578882;28;20095;-75
2022/08/24 00:48:48;;;;;;;;;;;;;;;;;;12579227;28;20028;-75
2022/08/24 00:54:54;;;;;;;0.60;0.60;;;;;;;;;;12596825;28;20254;-74
2022/08/24 01:00:58;;;;;;;0.70;0.70;;;;;;;;;;12578412;28;20044;-74
2022/08/24 01:07:00;;;;;;;0.85;0.82;;;;;;;;;;12578930;28;20033;-74
2022/08/24 01:13:04;;;;;;;1.50;1.10;;;;;;;;;;12595763;28;20035;-74
2022/08/24 01:19:10;;;;;;;0.70;0.70;;;;;;;;;;12577557;28;20040;-74
2022/08/24 01:25:12;;;;;;;0.98;0.90;;;;;;;;;;12595127;28;20033;-73
2022/08/24 01:31:15;;;;;;;0.95;0.93;;;;;;;;;;12577478;28;20059;-73
2022/08/24 01:37:17;;;;;;;0.75;0.75;;;;;;;;;;12576719;28;20040;-74
2022/08/24 01:43:19;;;;;;;0.90;0.90;;;;;;;;;;12559805;28;20044;-74
2022/08/24 01:49:31;;;;;;;0.90;0.90;;;;;;;;;;12576550;28;20035;-73
2022/08/24 01:55:34;;;;;;;0.85;0.85;;;;;;;;;;12576220;28;20043;-73
2022/08/24 02:01:37;;;;;;;1.40;1.30;;;;;;;;;;12576649;28;20488;-74
2022/08/24 02:07:39;;;;;;;1.17;1.17;;;;;;;;;;12559398;28;20398;-73
2022/08/24 02:13:42;;;;;;;1.50;1.40;;;;;;;;;;12558973;28;20406;-74
2022/08/24 02:19:43;;;;;;;1.20;1.10;;;;;;;;;;12575103;28;20040;-74
2022/08/24 02:25:46;;;;;;;0.93;0.90;;;;;;;;;;12575092;28;20059;-73
2022/08/24 02:31:48;;;;;;;1.15;1.10;;;;;;;;;;12574860;28;20044;-74
2022/08/24 02:37:51;;;;;;;1.23;1.13;;;;;;;;;;12558833;28;20037;-74
2022/08/24 02:43:53;;;;;;;1.20;1.17;;;;;;;;;;12575002;28;20041;-74
2022/08/24 02:49:56;;;;;;;1.15;0.85;;;;;;;;;;12574815;28;20036;-74
2022/08/24 02:55:58;;;;;;;1.30;1.20;;;;;;;;;;12594713;28;20516;-74
2022/08/24 03:01:59;;;;;;;1.30;1.20;;;;;;;;;;12603037;28;20409;-74
2022/08/24 03:08:02;;;;;;;1.23;1.13;;;;;;;;;;12584684;28;20045;-74
2022/08/24 03:14:06;;;;;;;1.40;1.30;;;;;;;;;;12583935;28;20056;-73
2022/08/24 03:20:10;;;;;;;1.38;1.27;;;;;;;;;;12583368;28;20044;-73
2022/08/24 03:26:12;;;;;;;1.55;1.45;;;;;;;;;;12582696;28;20477;-74
2022/08/24 03:32:13;;;;;;;;;;;;;;;;;;12550186;28;20533;-73
2022/08/24 03:38:15;;;;;;;2.37;1.80;;;;;;;;;;12532604;28;19920;-74
2022/08/24 03:44:18;;;;;;;1.60;1.50;;;;;;;;;;12532439;28;20041;-73
2022/08/24 03:50:20;;;;;;;1.40;1.30;;;;;;;;;;12532590;28;20047;-74
2022/08/24 03:56:22;;;;;;;1.85;1.75;;;;;;;;;;12532076;28;20044;-73
2022/08/24 04:02:24;;;;;;;2.45;2.25;;;;;;;;;;12531926;28;20052;-73
2022/08/24 04:08:25;;;;;;;1.90;1.80;;;;;;;;;;12531656;28;20040;-74
2022/08/24 04:14:27;;;;;;;1.90;1.80;;;;;;;;;;12531720;28;20044;-74
2022/08/24 04:20:42;;;;;;;1.80;1.70;;;;;;;;;;12531107;28;20041;-74
2022/08/24 04:26:47;;;;;;;1.85;1.75;;;;;;;;;;12530335;28;20040;-73
2022/08/24 04:32:49;;;;;;;1.75;1.65;;;;;;;;;;12575103;28;20064;-73
2022/08/24 04:38:51;;;;;;;1.92;1.77;;;;;;;;;;12579268;28;20028;-73
2022/08/24 04:45:13;;;;;;;2.17;2.07;;;;;;;;;;12596991;28;20045;-73
2022/08/24 04:51:16;;;;;;;2.08;1.88;;;;;;;;;;12562534;28;20279;-74
2022/08/24 04:57:18;;;;;;;2.30;1.90;;;;;;;;;;12578960;28;20037;-74
2022/08/24 05:03:21;;;;;;;1.92;1.83;;;;;;;;;;12562208;28;20059;-74
2022/08/24 05:09:23;;;;;;;2.15;2.05;;;;;;;;;;12561589;28;20032;-75
2022/08/24 05:15:25;;;;;;;2.00;1.80;;;;;;;;;;12595628;28;20402;-74
2022/08/24 05:21:29;;;;;;;1.95;1.85;;;;;;;;;;12560554;28;20043;-75
2022/08/24 05:27:33;;;;;;;2.20;2.00;;;;;;;;;;12561301;28;20036;-75
2022/08/24 05:33:35;;;;;;;1.70;1.60;;;;;;;;;;12576989;28;20482;-75
2022/08/24 05:39:37;;;;;;;2.60;2.20;;;;;;;;;;12576501;28;20037;-75
2022/08/24 05:45:43;;;;;;;2.17;1.98;;;;;;;;;;12560990;28;20044;-75
2022/08/24 05:51:46;;;;;;;1.77;1.67;;;;;;;;;;12575707;28;20583;-74
2022/08/24 05:57:49;;;;;;;2.10;1.90;;;;;;;;;;12558816;28;20043;-74
2022/08/24 06:03:55;;;;;;;1.50;1.40;;;;;;;;;;12559084;28;20053;-73
2022/08/24 06:09:58;;;;;;;1.58;1.45;;;;;;;;;;12575345;28;20040;-74
2022/08/24 06:16:07;;;;;;;1.60;1.40;;;;;;;;;;12593104;28;20398;-75
2022/08/24 06:22:09;;;;;;;1.40;1.30;;;;;;;;;;12558278;28;20047;-74
2022/08/24 06:28:13;;;;;;;1.15;1.10;;;;;;;;;;12558540;28;20056;-74
2022/08/24 06:34:17;;;;;;;1.52;1.10;;;;;;;;;;12582796;28;20036;-74
2022/08/24 06:40:19;;;;;;;1.08;0.80;;;;;;;;;;12584643;28;20044;-75
2022/08/24 06:46:21;;;;;;;1.23;0.82;;;;;;;;;;12584562;28;20036;-75
2022/08/24 06:52:23;;;;;;;;;;;;;;;;;;12568019;28;20025;-75
2022/08/24 06:58:27;;;;;;;1.20;0.93;;;;;;;;;;12584248;28;19916;-75
2022/08/24 07:04:29;;;;;;;1.02;0.93;;;;;;;;;;12567616;28;20059;-75
2022/08/24 07:10:45;;;;;;;0.60;0.60;;;;;;;;;;12602016;28;20036;-75
2022/08/24 07:16:48;;;;;;;1.02;0.95;;;;;;;;;;12583528;28;20037;-75
2022/08/24 07:22:51;;;;;;;0.80;0.80;;;;;;;;;;12583358;28;20055;-75
2022/08/24 07:28:54;;;;;;;1.63;0.90;;;;;;;;;;12566101;28;20505;-75
2022/08/24 07:34:57;;;;;;;1.02;0.60;;;;;;;;;;12565720;28;20029;-74
2022/08/24 07:41:00;;;;;;;0.85;0.60;;;;;;;;;;12581677;28;20057;-74
2022/08/24 07:47:03;;;;;;;0.57;0.57;;;;;;;;;;12600142;28;20386;-75
2022/08/24 07:53:05;;;;;;;0.82;0.80;;;;;;;;;;12599704;28;20462;-75
2022/08/24 07:59:08;;;;;;;1.30;0.65;;;;;;;;;;12581930;28;20040;-75
2022/08/24 08:05:10;;;;;;;1.50;0.73;;;;;;;;;;12564735;28;20181;-74
2022/08/24 08:11:18;;;;;;;0.75;0.55;;;;;;;;;;12581642;28;20033;-74
2022/08/24 08:17:20;;;;;;;1.75;0.82;;;;;;;;;;12564226;28;20035;-75
2022/08/24 08:29:48;;;;;;;0.45;0.45;;;;;;;;;;12580718;28;20056;-75
2022/08/24 08:35:51;;;;;;;0.80;0.60;;;;;;;;;;12563015;28;20040;-75
2022/08/24 08:42:13;;;;;;;0.63;0.60;;;;;;;;;;12579701;28;20036;-75
2022/08/24 08:48:21;;;;;;;1.13;0.43;;;;;;;;;;12562977;28;20043;-75
2022/08/24 08:54:36;;;;;;;0.68;0.68;;;;;;;;;;12577986;28;20040;-75
2022/08/24 09:00:48;;;;;;;1.67;1.02;;;;;;;;;;12579277;28;20044;-75
2022/08/24 09:06:51;;;;;;;1.23;0.80;;;;;;;;;;12562547;28;20032;-75
2022/08/24 09:13:13;;;;;;;0.57;0.55;;;;;;;;;;12561361;28;20082;-75
2022/08/24 09:19:19;;;;;;;1.48;0.60;;;;;;;;;;12513841;28;20052;-74
2022/08/24 09:25:28;;;;;;;1.77;0.60;;;;;;;;;;12577501;28;20048;-75
2022/08/24 09:31:50;;;;;;;0.90;0.40;;;;;;;;;;12577926;28;20063;-75
2022/08/24 09:37:59;;;;;;;0.60;0.60;;;;;;;;;;12577202;28;20037;-75
2022/08/24 09:44:01;;;;;;;0.50;0.50;;;;;;;;;;12594639;28;20055;-75
2022/08/24 09:50:06;;;;;;;0.47;0.43;;;;;;;;;;12594362;28;20029;-75
2022/08/24 09:56:19;;;;;;;0.50;0.47;;;;;;;;;;12575887;28;20024;-75
2022/08/24 10:02:45;;;;;;;0.82;0.82;;;;;;;;;;12595309;28;20051;-74
2022/08/24 10:08:46;;;;;;;1.48;0.80;;;;;;;;;;12575832;28;20048;-75
2022/08/24 10:14:55;;;;;;;0.63;0.63;;;;;;;;;;12593673;28;20051;-75
2022/08/24 10:21:08;;;;;;;1.15;0.50;;;;;;;;;;12597790;28;20035;-75
2022/08/24 10:27:17;;;;;;;0.45;0.40;;;;;;;;;;12624904;28;20040;-75
2022/08/24 10:33:22;;;;;;;0.40;0.40;;;;;;;;;;12642831;28;20050;-75
2022/08/24 10:39:42;;;;;;;0.70;0.43;;;;;;;;;;12607742;28;20485;-75
2022/08/24 10:45:51;;;;;;;0.52;0.40;;;;;;;;;;12642500;28;20043;-75
2022/08/24 10:52:02;;;;;;;0.20;0.20;;;;;;;;;;12641989;28;20513;-75
2022/08/24 10:58:13;;;;;;;0.30;0.30;;;;;;;;;;12624001;28;20035;-74
2022/08/24 11:04:26;;;;;;;1.25;0.73;;;;;;;;;;12642368;28;20436;-75
2022/08/24 11:10:30;;;;;;;0.52;0.50;;;;;;;;;;12642423;28;20032;-73
2022/08/24 11:16:32;;;;;;;0.55;0.40;;;;;;;;;;12644511;28;20043;-74
2022/08/24 11:22:39;;;;;;;0.40;0.40;;;;;;;;;;12616553;28;20044;-75
2022/08/24 11:28:41;;;;;;;1.15;0.43;;;;;;;;;;12650690;28;20056;-75
2022/08/24 11:34:46;;;;;;;1.40;0.50;;;;;;;;;;12632964;28;20040;-74
2022/08/24 11:40:57;;;;;;;0.95;0.50;;;;;;;;;;12631843;28;20082;-74
2022/08/24 11:47:08;;;;;;;0.57;0.57;;;;;;;;;;12631978;28;20028;-74
2022/08/24 11:53:09;;;;;;;0.77;0.70;;;;;;;;;;12649916;28;20493;-74
2022/08/24 11:59:11;;;;;;;1.42;0.70;;;;;;;;;;12650280;28;20040;-74
2022/08/24 12:05:13;;;;;;;0.65;0.60;;;;;;;;;;12649243;28;20062;-74
2022/08/24 12:11:35;;;;;;;0.50;0.50;;;;;;;;;;12649134;28;20043;-74
2022/08/24 12:17:43;;;;;;;0.60;0.60;;;;;;;;;;12649158;28;20043;-74
2022/08/24 12:23:48;;;;;;;1.52;0.65;;;;;;;;;;12648373;28;20047;-75
2022/08/24 12:29:53;;;;;;;1.30;0.70;;;;;;;;;;12630556;28;20055;-74
2022/08/24 12:35:59;;;;;;;0.88;0.70;;;;;;;;;;12629774;28;20042;-74
2022/08/24 12:42:06;;;;;;;0.50;0.50;;;;;;;;;;12647754;28;20047;-73
2022/08/24 12:48:41;;;;;;;0.85;0.80;;;;;;;;;;12629868;28;20028;-74
2022/08/24 12:54:49;;;;;;;0.95;0.40;;;;;;;;;;12593026;28;20044;-74
2022/08/24 13:00:50;;;;;;;0.50;0.50;;;;;;;;;;12647571;28;20044;-74
2022/08/24 13:06:59;;;;;;;1.67;0.50;;;;;;;;;;12611942;28;20043;-74
2022/08/24 13:13:04;;;;;;;0.70;0.50;;;;;;;;;;12628252;28;20039;-75
2022/08/24 13:19:15;;;;;;;0.65;0.40;;;;;;;;;;12628344;28;20032;-74
2022/08/24 13:25:22;;;;;;;1.35;0.65;;;;;;;;;;12627622;28;20493;-74
2022/08/24 13:31:26;;;;;;;0.57;0.57;;;;;;;;;;12612151;28;20394;-74
2022/08/24 13:37:28;;;;;;;0.50;0.50;;;;;;;;;;12645266;28;20493;-74
2022/08/24 13:43:33;;;;;;;0.90;0.50;;;;;;;;;;12644451;28;20047;-74
2022/08/24 13:49:45;;;;;;;0.68;0.40;;;;;;;;;;12627833;28;20059;-74
2022/08/24 13:55:49;;;;;;;0.40;0.40;;;;;;;;;;12644926;28;20293;-74
2022/08/24 14:01:59;;;;;;;1.17;0.40;;;;;;;;;;12646211;28;20051;-74
2022/08/24 14:08:25;;;;;;;0.30;0.20;;;;;;;;;;12644178;28;20150;-74
2022/08/24 14:14:27;;;;;;;0.95;0.40;;;;;;;;;;12626089;28;20039;-75
2022/08/24 14:20:32;;;;;;;0.30;0.30;;;;;;;;;;12625604;28;20032;-74
2022/08/24 14:26:39;;;;;;;2.67;0.50;;;;;;;;;;12626230;28;20032;-74
2022/08/24 14:32:45;;;;;;;0.35;0.30;;;;;;;;;;12644019;28;20056;-74
2022/08/24 14:38:55;;;;;;;0.38;0.38;;;;;;;;;;12608719;28;20051;-75
2022/08/24 14:45:04;;;;;;;0.20;0.20;;;;;;;;;;12625971;28;20047;-75
2022/08/24 14:51:12;;;;;;;0.40;0.30;;;;;;;;;;12643800;28;20059;-75
2022/08/24 14:57:14;;;;;;;0.98;0.30;;;;;;;;;;12635300;28;20489;-74
2022/08/24 15:03:32;;;;;;;0.35;0.20;;;;;;;;;;12618072;28;20048;-74
2022/08/24 15:09:36;;;;;;;0.30;0.28;;;;;;;;;;12652520;28;20047;-74
2022/08/24 15:15:38;;;;;;;1.27;0.30;;;;;;;;;;12651850;28;20032;-74
2022/08/24 15:21:47;;;;;;;0.30;0.30;;;;;;;;;;12633962;28;20036;-76
2022/08/24 15:27:58;;;;;;;0.73;0.30;;;;;;;;;;12651121;28;20036;-74
2022/08/24 15:34:02;;;;;;;0.40;0.40;;;;;;;;;;12633141;28;20039;-74
2022/08/24 15:40:05;;;;;;;0.35;0.20;;;;;;;;;;12632607;28;20445;-75
2022/08/24 15:46:08;;;;;;;0.73;0.30;;;;;;;;;;12615916;28;20044;-75
2022/08/24 15:52:29;;;;;;;0.50;0.30;;;;;;;;;;12650335;28;20035;-75
2022/08/24 15:58:34;;;;;;;1.73;0.40;;;;;;;;;;12632192;28;20032;-75
2022/08/24 16:04:45;;;;;;;0.60;0.50;;;;;;;;;;12649257;28;20040;-75
2022/08/24 16:10:52;;;;;;;0.30;0.30;;;;;;;;;;12649376;28;20039;-75
2022/08/24 16:16:54;;;;;;;0.30;0.30;;;;;;;;;;12631277;28;20035;-75
2022/08/24 16:22:58;;;;;;;0.30;0.30;;;;;;;;;;12648804;28;20059;-75
2022/08/24 16:29:00;;;;;;;0.38;0.25;;;;;;;;;;12648832;28;20056;-75
2022/08/24 16:35:09;;;;;;;0.93;0.38;;;;;;;;;;12613763;28;20413;-75
2022/08/24 16:41:11;;;;;;;0.40;0.40;;;;;;;;;;12629724;28;20378;-75
2022/08/24 16:47:13;;;;;;;0.98;0.50;;;;;;;;;;12650194;28;20511;-75
2022/08/24 16:53:15;;;;;;;0.47;0.30;;;;;;;;;;12688757;28;20042;-74
2022/08/24 16:59:20;;;;;;;0.40;0.30;;;;;;;;;;12630100;28;20450;-75
2022/08/24 17:05:22;;;;;;;0.98;0.28;;;;;;;;;;12628787;28;20485;-74
2022/08/24 17:11:24;;;;;;;0.22;0.20;;;;;;;;;;12628526;28;20478;-75
2022/08/24 17:17:27;;;;;;;0.10;0.10;;;;;;;;;;12645584;28;20370;-74
2022/08/24 17:23:30;;;;;;;0.10;0.10;;;;;;;;;;12645920;28;20036;-75
2022/08/24 17:29:32;;;;;;;0.38;0.30;;;;;;;;;;12646116;28;20075;-74
2022/08/24 17:35:36;;;;;;;0.30;0.20;;;;;;;;;;12627808;28;20035;-74
2022/08/24 17:41:37;;;;;;;0.28;0.25;;;;;;;;;;12645308;28;20051;-74
2022/08/24 17:47:40;;;;;;;0.95;0.40;;;;;;;;;;12626855;28;20489;-74
2022/08/24 17:53:42;;;;;;;0.43;0.22;;;;;;;;;;12626762;28;20036;-74
2022/08/24 17:59:44;;;;;;;0.80;0.57;;;;;;;;;;12627249;28;20032;-74
2022/08/24 18:05:46;;;;;;;1.67;0.70;;;;;;;;;;12644065;28;20075;-74
2022/08/24 18:11:47;;;;;;;1.15;0.60;;;;;;;;;;12644343;28;20047;-75
2022/08/24 18:17:50;;;;;;;1.35;0.77;;;;;;;;;;12625793;28;20036;-75
2022/08/24 18:23:52;;;;;;;0.98;0.60;;;;;;;;;;12625865;28;20069;-75
2022/08/24 18:29:56;;;;;;;0.60;0.60;;;;;;;;;;12640391;28;20056;-74
2022/08/24 18:35:57;;;;;;;1.10;0.57;;;;;;;;;;12660366;28;20297;-73
2022/08/24 18:42:00;;;;;;;0.80;0.60;;;;;;;;;;12659935;28;20401;-75
2022/08/24 18:48:02;;;;;;;1.02;0.75;;;;;;;;;;12641786;28;20397;-75
2022/08/24 18:54:12;;;;;;;0.50;0.40;;;;;;;;;;12624593;28;20028;-75
2022/08/24 19:00:14;;;;;;;0.70;0.70;;;;;;;;;;12659698;28;20043;-75
2022/08/24 19:06:16;;;;;;;0.60;0.60;;;;;;;;;;12659660;28;20032;-74
2022/08/24 19:12:18;;;;;;;1.50;1.15;;;;;;;;;;12641605;28;20029;-74
2022/08/24 19:18:22;;;;;;;1.50;0.90;;;;;;;;;;12641126;28;20513;-74
2022/08/24 19:24:25;;;;;;;2.05;0.88;;;;;;;;;;12641228;28;20036;-75
2022/08/24 19:30:27;;;;;;;1.30;1.20;;;;;;;;;;12656964;28;20052;-74
2022/08/24 19:36:30;;;;;;;2.03;0.90;;;;;;;;;;12639209;28;20058;-75
2022/08/24 19:42:32;;;;;;;1.30;1.20;;;;;;;;;;12633066;28;20052;-74
2022/08/24 19:48:36;;;;;;;2.05;1.13;;;;;;;;;;12650745;28;20063;-74
2022/08/24 19:54:39;;;;;;;2.17;1.08;;;;;;;;;;12650356;28;20035;-74
2022/08/24 20:00:43;;;;;;;0.93;0.82;;;;;;;;;;12649784;28;20043;-74
2022/08/24 20:06:44;;;;;;;1.23;1.13;;;;;;;;;;12649361;28;20500;-76
2022/08/24 20:12:46;;;;;;;1.40;1.25;;;;;;;;;;12649537;28;20031;-74
2022/08/24 20:18:48;;;;;;;1.95;1.15;;;;;;;;;;12649082;28;20035;-74
2022/08/24 20:24:52;;;;;;;2.13;1.05;;;;;;;;;;12631318;28;20481;-75
2022/08/24 20:30:53;;;;;;;2.28;1.40;;;;;;;;;;12629953;28;20063;-75
2022/08/24 20:36:57;;;;;;;1.23;1.20;;;;;;;;;;12612543;28;20028;-75
2022/08/24 20:42:59;;;;;;;1.42;1.20;;;;;;;;;;12647615;28;20040;-74
2022/08/24 20:49:01;;;;;;;1.63;1.52;;;;;;;;;;12646692;28;20401;-75
2022/08/24 20:55:03;;;;;;;1.33;1.23;;;;;;;;;;12629242;28;20481;-75
2022/08/24 21:01:06;;;;;;;1.10;1.00;;;;;;;;;;12629512;28;20054;-75
2022/08/24 21:07:11;;;;;;;1.60;1.08;;;;;;;;;;12646820;28;20054;-74
2022/08/24 21:13:13;;;;;;;1.10;0.98;;;;;;;;;;12628335;28;20059;-74
2022/08/24 21:19:16;;;;;;;1.15;1.00;;;;;;;;;;12646411;28;20032;-75
2022/08/24 21:25:18;;;;;;;0.95;0.95;;;;;;;;;;12646095;28;20040;-75
2022/08/24 21:31:19;;;;;;;1.60;1.10;;;;;;;;;;12646035;28;20058;-75
2022/08/24 21:37:22;;;;;;;1.40;1.30;;;;;;;;;;12645900;28;20040;-75
2022/08/24 21:43:23;;;;;;;1.60;1.10;;;;;;;;;;12610512;28;20042;-75
2022/08/24 21:49:25;;;;;;;1.13;1.02;;;;;;;;;;12626958;28;20028;-75
2022/08/24 21:55:27;;;;;;;1.38;1.00;;;;;;;;;;12611763;28;20385;-74
2022/08/24 22:01:29;;;;;;;1.13;1.02;;;;;;;;;;12626661;28;20043;-75
2022/08/24 22:07:31;;;;;;;1.85;0.98;;;;;;;;;;12626184;28;20473;-74
2022/08/24 22:13:33;;;;;;;1.08;0.93;;;;;;;;;;12625565;28;20028;-74
2022/08/24 22:19:35;;;;;;;1.25;0.90;;;;;;;;;;12625902;28;20036;-74
2022/08/24 22:25:37;;;;;;;1.17;0.98;;;;;;;;;;12644809;28;20482;-74
2022/08/24 22:31:40;;;;;;;0.88;0.88;;;;;;;;;;12627876;28;20056;-74
2022/08/24 22:37:43;;;;;;;1.25;0.95;;;;;;;;;;12608690;28;20051;-74
2022/08/24 22:50:06;;;;;;;1.98;1.13;;;;;;;;;;12625224;28;20032;-75
2022/08/24 22:56:18;;;;;;;2.45;1.13;;;;;;;;;;12608355;28;20101;-75
2022/08/24 23:02:21;;;;;;;1.40;1.30;;;;;;;;;;12644276;28;20048;-75
2022/08/24 23:08:23;;;;;;;1.10;1.00;;;;;;;;;;12624745;28;20043;-74
2022/08/24 23:14:24;;;;;;;1.42;1.02;;;;;;;;;;12628992;28;20497;-75
2022/08/24 23:20:26;;;;;;;;;;;;;;;;;;12634512;28;20393;-74
2022/08/24 23:26:28;;;;;;;1.10;1.00;;;;;;;;;;12651813;28;20324;-74
2022/08/24 23:32:29;;;;;;;;;;;;;;;;;;12617918;28;20064;-74
2022/08/24 23:38:31;;;;;;;1.73;1.23;;;;;;;;;;12651289;28;20242;-75
2022/08/24 23:44:33;;;;;;;1.25;1.17;;;;;;;;;;12651097;28;20067;-74
2022/08/24 23:50:35;;;;;;;1.15;1.10;;;;;;;;;;12632803;28;20055;-74
2022/08/24 23:56:37;;;;;;;;;;;;;;;;;;12633172;28;20387;-74
